Time;durP1;ratioP1;P1;durP2;ratioP2;P2;SDS_P1;SDS_P2;PMS_P1;PMS_P2;Temp;Humidity;BMP_temperature;BMP_pressure;BME280_temperature;BME280_humidity;BME280_pressure;Samples;Min_cycle;Max_cycle;Signal;HPM_P1;HPM_P2
2022/12/22 03:27:34;;;;;;;130.03;54.10;;;-3.60;99.90;;;;;;4115174;28;20681;-60
2022/12/22 03:29:35;;;;;;;121.73;53.53;;;-3.60;99.90;;;;;;4113033;28;20654;-56
2022/12/22 03:31:36;;;;;;;130.93;53.00;;;-3.60;99.90;;;;;;4114329;28;20615;-60
2022/12/22 03:33:37;;;;;;;115.73;53.17;;;-3.60;99.90;;;;;;4113340;28;20619;-60
2022/12/22 03:35:38;;;;;;;119.90;54.13;;;-3.50;99.90;;;;;;4114152;28;20320;-61
2022/12/22 03:37:39;;;;;;;115.37;51.67;;;-3.50;99.90;;;;;;4112495;28;20360;-60
2022/12/22 03:39:40;;;;;;;134.13;55.90;;;-3.50;99.90;;;;;;4114827;28;20277;-61
2022/12/22 03:46:30;;;;;;;126.70;56.00;;;-3.40;99.90;;;;;;4113796;28;20363;-60
2022/12/22 03:48:31;;;;;;;132.70;54.47;;;-3.40;99.90;;;;;;4114352;28;20355;-61
2022/12/22 03:50:32;;;;;;;131.43;57.47;;;-3.30;99.90;;;;;;4112967;28;20026;-60
2022/12/22 03:52:33;;;;;;;122.23;55.60;;;-3.30;99.90;;;;;;4114170;28;20268;-59
2022/12/22 03:54:34;;;;;;;119.13;52.83;;;-3.30;99.90;;;;;;4113380;28;20253;-60
2022/12/22 03:56:36;;;;;;;131.30;56.83;;;-3.30;99.90;;;;;;4114465;28;20261;-60
2022/12/22 03:58:38;;;;;;;128.50;55.20;;;-3.30;99.90;;;;;;4113181;28;20331;-59
2022/12/22 04:00:39;;;;;;;121.33;54.83;;;-3.20;99.90;;;;;;4113316;28;20669;-59
2022/12/22 04:02:40;;;;;;;120.23;54.93;;;-3.20;99.90;;;;;;4112458;28;20335;-60
2022/12/22 04:04:41;;;;;;;127.70;56.80;;;-3.20;99.90;;;;;;4113562;28;20344;-60
2022/12/22 04:06:42;;;;;;;121.47;56.10;;;-3.20;99.90;;;;;;4113569;28;20344;-60
2022/12/22 04:08:44;;;;;;;122.30;54.87;;;-3.10;99.90;;;;;;4112016;28;20713;-58
2022/12/22 04:13:04;;;;;;;112.87;52.93;;;-3.20;99.90;;;;;;4113337;28;20303;-61
2022/12/22 04:15:06;;;;;;;116.47;50.83;;;-3.20;99.90;;;;;;4113855;28;20816;-60
2022/12/22 04:17:08;;;;;;;116.67;53.13;;;-3.30;99.90;;;;;;4112867;28;20306;-59
2022/12/22 04:19:09;;;;;;;117.13;51.27;;;-3.30;99.90;;;;;;4113841;28;20276;-60
2022/12/22 04:21:11;;;;;;;116.40;50.87;;;-3.30;99.90;;;;;;4112973;28;20320;-60
2022/12/22 04:23:12;;;;;;;117.27;52.60;;;-3.40;99.90;;;;;;4113233;28;20320;-60
2022/12/22 04:25:13;;;;;;;113.83;50.03;;;-3.30;99.90;;;;;;4111980;28;20316;-60
2022/12/22 04:27:14;;;;;;;105.50;47.87;;;-3.30;99.90;;;;;;4113679;28;20781;-58
2022/12/22 04:29:15;;;;;;;115.10;49.33;;;-3.30;99.90;;;;;;4112736;28;20351;-59
2022/12/22 04:31:17;;;;;;;109.60;49.10;;;-3.30;99.90;;;;;;4113885;28;20265;-60
2022/12/22 04:33:18;;;;;;;102.97;48.60;;;-3.30;99.90;;;;;;4111928;28;20273;-60
2022/12/22 04:35:19;;;;;;;109.23;47.67;;;-3.20;99.90;;;;;;4112929;28;20273;-57
2022/12/22 04:37:20;;;;;;;107.67;50.47;;;-3.20;99.90;;;;;;4112146;28;20276;-59
2022/12/22 04:39:21;;;;;;;108.87;49.23;;;-3.20;99.90;;;;;;4113272;28;20265;-59
2022/12/22 04:41:22;;;;;;;102.73;48.63;;;-3.20;99.90;;;;;;4113230;28;20598;-60
2022/12/22 04:43:24;;;;;;;105.43;49.00;;;-3.20;99.90;;;;;;4112419;28;20461;-60
2022/12/22 04:45:25;;;;;;;107.57;49.30;;;-3.20;99.90;;;;;;4113718;28;20272;-60
2022/12/22 04:47:26;;;;;;;115.30;49.93;;;-3.20;99.90;;;;;;4111597;28;20293;-59
2022/12/22 04:49:27;;;;;;;112.17;50.97;;;-3.20;99.90;;;;;;4113319;28;20657;-62
2022/12/22 04:51:28;;;;;;;108.27;50.83;;;-3.10;99.90;;;;;;4112449;28;20304;-61
2022/12/22 04:53:30;;;;;;;112.47;52.73;;;-3.10;99.90;;;;;;4113582;28;20256;-60
2022/12/22 04:55:31;;;;;;;112.03;50.03;;;-3.10;99.90;;;;;;4112271;28;20801;-61
2022/12/22 04:57:33;;;;;;;107.27;49.37;;;-3.00;99.90;;;;;;4113137;28;20260;-61
2022/12/22 04:59:34;;;;;;;107.00;50.03;;;-3.00;99.90;;;;;;4112366;28;20744;-74
2022/12/22 05:01:35;;;;;;;107.37;49.33;;;-3.00;99.90;;;;;;4112696;28;20277;-65
2022/12/22 05:03:36;;;;;;;107.77;50.87;;;-3.00;99.90;;;;;;4111047;28;20335;-62
2022/12/22 05:05:37;;;;;;;107.73;47.90;;;-3.00;99.90;;;;;;4112191;28;20684;-60
2022/12/22 05:07:39;;;;;;;103.07;49.80;;;-2.90;99.90;;;;;;4111510;28;20749;-62
2022/12/22 05:09:40;;;;;;;103.50;51.00;;;-2.90;99.90;;;;;;4111731;28;20355;-63
2022/12/22 05:11:41;;;;;;;101.27;47.97;;;-2.90;99.90;;;;;;4111978;28;20712;-62
2022/12/22 05:13:42;;;;;;;109.00;50.80;;;-2.80;99.90;;;;;;4112230;28;20323;-74
2022/12/22 05:15:43;;;;;;;102.47;47.73;;;-2.80;99.90;;;;;;4113097;28;20276;-60
2022/12/22 05:17:44;;;;;;;104.23;49.07;;;-2.70;99.90;;;;;;4111542;28;20305;-60
2022/12/22 05:19:45;;;;;;;103.87;48.23;;;-2.70;99.90;;;;;;4113982;28;20285;-63
2022/12/22 05:21:46;;;;;;;104.50;49.70;;;-2.70;99.90;;;;;;4111732;28;20272;-62
2022/12/22 05:23:48;;;;;;;96.97;46.70;;;-2.60;99.90;;;;;;4112894;28;20281;-60
2022/12/22 05:25:49;;;;;;;102.07;45.93;;;-2.60;99.90;;;;;;4111168;28;20277;-63
2022/12/22 05:27:51;;;;;;;106.83;47.37;;;-2.60;99.90;;;;;;4112916;28;20714;-60
2022/12/22 05:29:53;;;;;;;104.13;49.73;;;-2.50;99.90;;;;;;4112120;28;20261;-59
2022/12/22 05:31:54;;;;;;;105.83;49.60;;;-2.50;99.90;;;;;;4112695;28;20276;-57
2022/12/22 05:33:55;;;;;;;106.40;46.40;;;-2.50;99.90;;;;;;4110749;28;20265;-61
2022/12/22 05:35:56;;;;;;;102.47;46.40;;;-2.40;99.90;;;;;;4105781;28;20356;-60
2022/12/22 05:37:57;;;;;;;103.53;45.90;;;-2.50;99.90;;;;;;4096056;29;20603;-60
2022/12/22 05:39:58;;;;;;;100.87;45.73;;;-2.50;99.90;;;;;;4095837;29;20654;-60
2022/12/22 05:42:00;;;;;;;99.37;46.10;;;-2.50;99.90;;;;;;4095940;29;20266;-59
2022/12/22 05:44:01;;;;;;;103.27;47.87;;;-2.60;99.90;;;;;;4095917;29;20650;-59
2022/12/22 05:46:04;;;;;;;101.43;45.10;;;-2.60;99.90;;;;;;4096667;29;20762;-60
2022/12/22 05:48:05;;;;;;;107.10;47.23;;;-2.60;99.90;;;;;;4095776;29;20277;-59
2022/12/22 05:50:08;;;;;;;94.23;45.83;;;-2.60;99.90;;;;;;4124265;28;20334;-58
2022/12/22 05:52:09;;;;;;;100.93;46.20;;;-2.60;99.90;;;;;;4127914;28;20684;-61
2022/12/22 05:54:11;;;;;;;99.63;46.00;;;-2.70;99.90;;;;;;4128870;28;20260;-58
2022/12/22 05:56:12;;;;;;;103.03;49.67;;;-2.70;99.90;;;;;;4127422;28;20260;-62
2022/12/22 05:58:13;;;;;;;103.00;47.27;;;-2.70;99.90;;;;;;4128547;28;20288;-59
2022/12/22 06:00:16;;;;;;;100.90;46.33;;;-2.70;99.90;;;;;;4128307;28;20268;-59
2022/12/22 06:02:17;;;;;;;97.80;46.80;;;-2.70;99.90;;;;;;4132346;28;20811;-60
2022/12/22 06:04:18;;;;;;;107.67;46.67;;;-2.70;99.90;;;;;;4129872;28;20328;-60
2022/12/22 06:06:20;;;;;;;110.13;47.33;;;-2.60;99.90;;;;;;4131849;28;20342;-61
2022/12/22 06:08:21;;;;;;;102.17;50.30;;;-2.70;99.90;;;;;;4130929;28;20323;-60
2022/12/22 06:10:22;;;;;;;107.53;47.97;;;-2.60;99.90;;;;;;4131048;28;20268;-60
2022/12/22 06:12:23;;;;;;;109.53;50.80;;;-2.60;99.90;;;;;;4130961;28;20736;-59
2022/12/22 06:14:25;;;;;;;112.03;47.73;;;-2.60;99.90;;;;;;4131586;28;21058;-61
2022/12/22 06:16:26;;;;;;;110.67;49.37;;;-2.60;99.90;;;;;;4123367;28;20323;-60
2022/12/22 06:18:27;;;;;;;113.00;49.63;;;-2.60;99.90;;;;;;4113102;28;20336;-60
2022/12/22 06:20:28;;;;;;;104.00;48.93;;;-2.50;99.90;;;;;;4113137;28;20280;-60
2022/12/22 06:22:30;;;;;;;107.90;48.70;;;-2.50;99.90;;;;;;4102088;28;20340;-60
2022/12/22 06:24:31;;;;;;;115.30;50.93;;;-2.50;99.90;;;;;;4112588;28;20339;-68
2022/12/22 06:26:32;;;;;;;112.27;49.60;;;-2.40;99.90;;;;;;4113120;28;20708;-60
2022/12/22 06:28:33;;;;;;;111.10;53.17;;;-2.40;99.90;;;;;;4103389;28;20341;-61
2022/12/22 06:30:34;;;;;;;100.70;48.90;;;-2.30;99.90;;;;;;4107042;28;20350;-60
2022/12/22 06:32:38;;;;;;;106.73;47.33;;;-2.20;99.90;;;;;;4115507;28;20327;-59
2022/12/22 06:34:39;;;;;;;106.50;46.60;;;-2.20;99.90;;;;;;4112891;28;20328;-62
2022/12/22 06:36:41;;;;;;;106.63;47.30;;;-2.10;99.90;;;;;;4115238;28;20315;-60
2022/12/22 06:38:42;;;;;;;100.63;46.30;;;-2.00;99.90;;;;;;4113610;28;20311;-60
2022/12/22 06:40:43;;;;;;;92.27;45.30;;;-2.00;99.90;;;;;;4115112;28;20677;-61
2022/12/22 06:45:04;;;;;;;96.20;45.23;;;-2.00;99.90;;;;;;4115759;28;20351;-63
2022/12/22 06:47:05;;;;;;;93.40;44.37;;;-2.00;99.90;;;;;;4113785;28;20297;-68
2022/12/22 06:49:06;;;;;;;88.00;43.37;;;-2.00;99.90;;;;;;4113688;28;20261;-60
2022/12/22 06:51:07;;;;;;;109.10;48.50;;;-1.90;99.90;;;;;;4114191;28;20256;-59
2022/12/22 06:53:09;;;;;;;105.63;50.33;;;-1.90;99.90;;;;;;4113941;28;20335;-61
2022/12/22 06:55:10;;;;;;;129.70;57.37;;;-1.90;99.90;;;;;;4115001;28;20422;-59
2022/12/22 06:57:11;;;;;;;120.20;53.90;;;-1.80;99.90;;;;;;4113579;28;20749;-59
2022/12/22 06:59:13;;;;;;;122.87;50.97;;;-1.80;99.90;;;;;;4104862;28;20769;-61
2022/12/22 07:01:14;;;;;;;136.30;62.37;;;-1.80;99.90;;;;;;4105403;28;20315;-60
2022/12/22 07:03:15;;;;;;;95.03;45.33;;;-1.70;99.90;;;;;;4097549;29;20796;-61
2022/12/22 07:05:16;;;;;;;95.00;46.13;;;-1.70;99.90;;;;;;4099307;28;20336;-59
2022/12/22 07:07:18;;;;;;;97.03;46.50;;;-1.60;99.90;;;;;;4111987;28;20296;-61
2022/12/22 07:09:19;;;;;;;106.70;49.70;;;-1.60;99.90;;;;;;4104063;28;20327;-60
2022/12/22 07:11:20;;;;;;;97.87;45.53;;;-1.50;99.90;;;;;;4114306;28;20253;-59
2022/12/22 07:13:22;;;;;;;90.53;45.17;;;-1.50;99.90;;;;;;4113053;28;20268;-59
2022/12/22 07:15:23;;;;;;;100.13;45.53;;;-1.40;99.90;;;;;;4114493;28;20264;-60
2022/12/22 07:17:25;;;;;;;91.30;44.53;;;-1.30;99.90;;;;;;4112694;28;20737;-60
2022/12/22 07:19:26;;;;;;;86.00;42.30;;;-1.30;99.90;;;;;;4113939;28;20328;-60
2022/12/22 07:21:27;;;;;;;88.87;42.57;;;-1.30;99.90;;;;;;4127881;28;20672;-67
2022/12/22 07:23:29;;;;;;;90.30;44.07;;;-1.30;99.90;;;;;;4130132;28;20264;-61
2022/12/22 07:25:30;;;;;;;83.77;41.73;;;-1.20;99.90;;;;;;4130615;28;20736;-60
2022/12/22 07:27:31;;;;;;;91.97;43.87;;;-1.20;99.90;;;;;;4118560;28;20375;-61
2022/12/22 07:29:35;;;;;;;107.43;45.00;;;-1.20;99.90;;;;;;4096975;29;20281;-61
2022/12/22 07:31:36;;;;;;;90.40;43.07;;;-1.20;99.90;;;;;;4113388;28;20281;-60
2022/12/22 07:33:37;;;;;;;85.27;41.17;;;-1.10;99.90;;;;;;4114514;28;20328;-61
2022/12/22 07:35:38;;;;;;;86.17;39.77;;;-1.10;99.90;;;;;;4095735;28;20309;-59
2022/12/22 07:37:40;;;;;;;88.23;41.20;;;-1.10;99.90;;;;;;4114114;28;20749;-58
2022/12/22 07:39:41;;;;;;;86.23;39.90;;;-1.00;99.90;;;;;;4111487;28;20269;-59
2022/12/22 07:44:03;;;;;;;82.43;39.43;;;-1.00;99.90;;;;;;4113467;28;20300;-59
2022/12/22 07:46:05;;;;;;;75.00;38.10;;;-1.00;99.90;;;;;;4113766;28;20339;-60
2022/12/22 07:50:23;;;;;;;82.60;40.93;;;-1.00;99.90;;;;;;4113068;28;20296;-58
2022/12/22 07:50:27;;;;;;;;;;;-1.00;99.90;;;;;;4114236;28;20362;-60
2022/12/22 07:52:28;;;;;;;;;;;-1.00;99.90;;;;;;4113537;28;20000;-60
2022/12/22 07:54:29;;;;;;;;;;;-1.00;99.90;;;;;;4114294;28;19905;-61
2022/12/22 07:56:30;;;;;;;79.28;36.42;;;-0.90;99.90;;;;;;4112447;28;20233;-57
2022/12/22 07:58:32;;;;;;;77.03;35.83;;;-0.90;99.90;;;;;;4112408;28;20031;-62
2022/12/22 08:00:33;;;;;;;84.37;38.03;;;-0.90;99.90;;;;;;4111930;28;20269;-59
2022/12/22 08:02:34;;;;;;;82.13;39.37;;;-0.90;99.90;;;;;;4112176;28;20276;-58
2022/12/22 08:04:35;;;;;;;76.37;37.67;;;-0.90;99.90;;;;;;4111569;28;20339;-66
2022/12/22 08:06:37;;;;;;;77.17;39.10;;;-0.90;99.90;;;;;;4112010;28;20890;-59
2022/12/22 08:08:38;;;;;;;82.23;39.00;;;-0.90;99.90;;;;;;4095365;29;20694;-61
2022/12/22 08:10:39;;;;;;;81.80;39.43;;;-0.90;99.90;;;;;;4112624;28;20390;-59
2022/12/22 08:12:40;;;;;;;83.03;40.67;;;-0.90;99.90;;;;;;4113899;28;20316;-60
2022/12/22 08:14:44;;;;;;;92.07;43.73;;;-0.90;99.90;;;;;;4112345;28;20835;-60
2022/12/22 08:16:45;;;;;;;86.27;41.70;;;-0.80;99.90;;;;;;4121497;28;20284;-59
2022/12/22 08:18:48;;;;;;;92.03;41.90;;;-0.70;99.90;;;;;;4128969;28;20352;-59
2022/12/22 08:20:50;;;;;;;86.47;42.10;;;-0.60;99.90;;;;;;4129917;28;20326;-59
2022/12/22 08:22:51;;;;;;;90.60;42.87;;;-0.50;99.90;;;;;;4115275;28;20332;-59
2022/12/22 08:24:53;;;;;;;83.77;42.97;;;-0.50;99.90;;;;;;4112855;28;20280;-61
2022/12/22 08:26:59;;;;;;;83.43;41.47;;;-0.40;99.90;;;;;;4109743;28;20292;-62
2022/12/22 08:29:09;;;;;;;80.87;38.53;;;-0.30;99.90;;;;;;4109340;28;20680;-68
2022/12/22 08:31:10;;;;;;;85.50;38.33;;;-0.20;99.90;;;;;;4108075;28;20274;-62
2022/12/22 08:33:11;;;;;;;78.33;37.90;;;-0.20;99.90;;;;;;4108994;28;20064;-61
2022/12/22 08:35:12;;;;;;;80.30;39.33;;;-0.20;99.90;;;;;;4107759;28;20264;-62
2022/12/22 08:37:17;;;;;;;81.07;38.90;;;-0.10;99.90;;;;;;4110472;28;20272;-67
2022/12/22 08:39:20;;;;;;;73.87;37.43;;;-0.10;99.90;;;;;;4113609;28;20343;-63
2022/12/22 08:41:48;;;;;;;71.23;35.87;;;0.00;99.90;;;;;;4111744;28;20367;-71
2022/12/22 08:43:43;;;;;;;79.47;38.27;;;0.10;99.90;;;;;;4111607;28;20265;-69
2022/12/22 08:45:44;;;;;;;79.07;34.67;;;0.10;99.90;;;;;;4112249;28;20354;-73
2022/12/22 08:47:45;;;;;;;68.40;32.57;;;0.10;99.90;;;;;;4112730;28;20352;-72
2022/12/22 08:49:47;;;;;;;65.67;32.10;;;0.10;99.90;;;;;;4111648;28;20277;-72
2022/12/22 08:51:48;;;;;;;68.40;33.03;;;0.10;99.90;;;;;;4112985;28;20669;-71
2022/12/22 08:53:50;;;;;;;68.90;32.90;;;0.10;99.90;;;;;;4111457;28;20268;-72
2022/12/22 08:55:54;;;;;;;71.53;35.67;;;0.10;99.90;;;;;;4112544;28;20264;-59
2022/12/22 08:57:55;;;;;;;68.37;33.17;;;0.20;99.90;;;;;;4111770;28;20256;-69
2022/12/22 08:59:57;;;;;;;73.47;35.10;;;0.20;99.90;;;;;;4113196;28;20269;-60
2022/12/22 09:02:03;;;;;;;69.40;32.83;;;0.20;99.90;;;;;;4111511;28;20315;-72
2022/12/22 09:04:08;;;;;;;68.73;33.77;;;0.40;99.90;;;;;;4101433;28;20343;-70
2022/12/22 09:06:09;;;;;;;73.83;35.30;;;0.40;99.90;;;;;;4095960;28;20265;-69
2022/12/22 09:08:10;;;;;;;67.13;34.00;;;0.50;99.90;;;;;;4097060;28;20804;-72
2022/12/22 09:10:12;;;;;;;65.50;35.13;;;0.60;99.90;;;;;;4078149;29;20263;-69
2022/12/22 09:12:13;;;;;;;73.53;35.53;;;0.90;99.90;;;;;;4126554;28;20318;-72
2022/12/22 09:14:15;;;;;;;71.57;38.07;;;1.10;99.90;;;;;;4127889;28;20272;-73
2022/12/22 09:16:16;;;;;;;70.13;34.57;;;1.20;99.90;;;;;;4129038;28;20326;-72
2022/12/22 09:18:17;;;;;;;73.07;36.53;;;1.20;99.90;;;;;;4128107;28;20276;-72
2022/12/22 09:20:18;;;;;;;68.37;34.30;;;1.40;99.90;;;;;;4128187;28;20668;-73
2022/12/22 09:22:19;;;;;;;69.50;34.83;;;1.30;99.90;;;;;;4128209;28;20303;-72
2022/12/22 09:24:20;;;;;;;72.03;35.07;;;1.30;99.90;;;;;;4127465;28;20276;-68
2022/12/22 09:26:24;;;;;;;69.10;35.23;;;1.20;99.90;;;;;;4128362;28;20272;-67
2022/12/22 09:28:25;;;;;;;71.50;35.57;;;1.10;99.90;;;;;;4126871;28;20295;-73
2022/12/22 09:30:26;;;;;;;69.57;37.20;;;1.10;99.90;;;;;;4128728;28;20424;-74
2022/12/22 09:32:27;;;;;;;67.50;34.47;;;1.10;99.90;;;;;;4110923;28;20647;-71
2022/12/22 09:34:28;;;;;;;72.43;36.83;;;1.00;99.90;;;;;;4112182;28;20288;-60
2022/12/22 09:36:31;;;;;;;73.67;36.37;;;1.00;99.90;;;;;;4111247;28;20280;-58
2022/12/22 09:38:32;;;;;;;77.60;36.53;;;1.10;99.90;;;;;;4111795;28;20289;-60
2022/12/22 09:40:33;;;;;;;71.03;34.37;;;1.10;99.90;;;;;;4111655;28;20273;-65
2022/12/22 09:42:36;;;;;;;73.73;36.30;;;1.10;99.90;;;;;;4111991;28;20276;-70
2022/12/22 09:44:43;;;;;;;67.50;36.07;;;1.00;99.90;;;;;;4111367;28;20268;-61
2022/12/22 09:46:44;;;;;;;67.93;33.43;;;1.00;99.90;;;;;;4112114;28;20281;-68
2022/12/22 09:48:46;;;;;;;73.57;36.60;;;1.00;99.90;;;;;;4111274;28;20284;-64
2022/12/22 09:50:47;;;;;;;73.27;34.43;;;1.00;99.90;;;;;;4111614;28;20280;-60
2022/12/22 09:53:10;;;;;;;72.63;36.83;;;1.10;99.90;;;;;;4111851;28;20280;-59
2022/12/22 09:55:19;;;;;;;76.23;36.20;;;1.10;99.90;;;;;;4098241;28;20273;-68
2022/12/22 09:57:23;;;;;;;73.43;36.77;;;1.10;99.90;;;;;;4111326;28;20268;-69
2022/12/22 09:59:27;;;;;;;76.87;37.77;;;1.10;99.90;;;;;;4111715;28;20257;-61
2022/12/22 10:02:02;;;;;;;74.30;37.37;;;1.20;99.90;;;;;;4111866;28;20264;-62
2022/12/22 10:04:17;;;;;;;66.50;34.37;;;1.20;99.90;;;;;;4111424;28;20328;-64
2022/12/22 10:06:27;;;;;;;79.80;36.77;;;1.30;99.90;;;;;;4123710;28;20324;-66
2022/12/22 10:08:32;;;;;;;76.97;38.45;;;1.40;99.90;;;;;;4128060;28;20370;-65
2022/12/22 10:10:36;;;;;;;68.23;36.60;;;1.50;99.90;;;;;;4111747;28;20458;-62
2022/12/22 10:12:37;;;;;;;69.10;35.23;;;1.50;99.90;;;;;;4111364;28;20288;-71
2022/12/22 10:14:42;;;;;;;73.60;37.13;;;1.60;99.90;;;;;;4111638;28;20287;-66
2022/12/22 10:16:43;;;;;;;66.63;34.10;;;1.70;99.90;;;;;;4111743;28;20276;-64
2022/12/22 10:19:08;;;;;;;73.40;35.40;;;1.80;99.90;;;;;;4111350;28;20332;-62
2022/12/22 10:21:12;;;;;;;69.30;34.10;;;1.80;99.90;;;;;;4111674;28;20308;-61
2022/12/22 10:23:17;;;;;;;64.77;33.47;;;1.90;99.90;;;;;;4110980;28;20820;-61
2022/12/22 10:25:35;;;;;;;65.23;34.00;;;1.90;99.90;;;;;;4111001;28;20340;-70
2022/12/22 10:27:36;;;;;;;65.27;34.80;;;2.00;99.90;;;;;;4111078;28;20375;-61
2022/12/22 10:29:38;;;;;;;60.80;31.23;;;2.00;99.90;;;;;;4111582;28;20288;-62
2022/12/22 10:32:02;;;;;;;72.53;33.63;;;2.00;99.90;;;;;;4111790;28;20268;-62
2022/12/22 10:34:15;;;;;;;78.87;34.37;;;2.00;99.90;;;;;;4111126;28;20323;-63
2022/12/22 10:36:35;;;;;;;72.67;36.37;;;2.10;99.90;;;;;;4111626;28;20336;-61
2022/12/22 10:38:39;;;;;;;62.57;31.83;;;2.10;99.90;;;;;;4111612;28;20610;-60
2022/12/22 10:40:46;;;;;;;61.03;30.70;;;2.20;99.90;;;;;;4110638;28;20324;-66
2022/12/22 10:42:54;;;;;;;61.40;29.93;;;2.30;99.90;;;;;;4110695;28;20737;-65
2022/12/22 10:44:57;;;;;;;62.00;31.90;;;2.30;99.90;;;;;;4110942;28;20252;-62
2022/12/22 10:47:09;;;;;;;57.50;31.10;;;2.40;99.90;;;;;;4109321;28;20673;-62
2022/12/22 10:49:20;;;;;;;67.00;32.40;;;2.50;99.90;;;;;;4113993;28;20335;-62
2022/12/22 10:51:23;;;;;;;;;;;2.60;99.90;;;;;;4114544;28;20272;-61
2022/12/22 10:53:56;;;;;;;81.40;35.03;;;2.70;99.90;;;;;;4113088;28;19962;-67
2022/12/22 10:56:07;;;;;;;92.97;37.60;;;2.80;99.90;;;;;;4061314;28;20281;-62
2022/12/22 10:58:09;;;;;;;92.33;34.43;;;2.70;99.90;;;;;;4113735;28;20344;-61
2022/12/22 11:00:30;;;;;;;120.67;39.97;;;2.70;99.90;;;;;;4114672;28;20265;-64
2022/12/22 11:02:38;;;;;;;79.63;34.37;;;2.70;99.90;;;;;;4104581;28;20316;-60
2022/12/22 11:04:39;;;;;;;73.00;32.47;;;2.70;99.90;;;;;;4114461;28;20292;-62
2022/12/22 11:06:42;;;;;;;67.30;33.40;;;2.70;99.90;;;;;;4113818;28;20265;-61
2022/12/22 11:08:44;;;;;;;54.27;29.10;;;2.70;99.90;;;;;;4113278;28;20363;-62
2022/12/22 11:10:47;;;;;;;58.13;30.50;;;2.80;99.90;;;;;;4114458;28;20607;-61
2022/12/22 11:13:01;;;;;;;61.97;30.43;;;2.70;99.90;;;;;;4113735;28;20272;-64
2022/12/22 11:15:24;;;;;;;54.70;28.77;;;2.60;99.90;;;;;;4114144;28;20335;-61
2022/12/22 11:17:34;;;;;;;50.80;27.83;;;2.60;99.90;;;;;;4114700;28;20261;-66
2022/12/22 11:19:46;;;;;;;65.00;31.20;;;2.60;99.90;;;;;;4113939;28;20788;-67
2022/12/22 11:22:07;;;;;;;64.83;31.97;;;2.60;99.90;;;;;;4104220;28;20828;-65
2022/12/22 11:24:23;;;;;;;61.40;31.07;;;2.60;99.90;;;;;;4080848;28;20284;-59
2022/12/22 11:26:54;;;;;;;58.57;30.30;;;2.60;99.90;;;;;;4113923;28;20729;-61
2022/12/22 11:29:22;;;;;;;59.75;28.65;;;2.60;99.90;;;;;;4112763;28;20387;-59
2022/12/22 11:31:48;;;;;;;60.10;29.63;;;2.60;99.90;;;;;;4114050;28;20030;-64
2022/12/22 11:34:17;;;;;;;62.87;31.87;;;2.60;99.90;;;;;;4112214;28;20280;-61
2022/12/22 11:36:26;;;;;;;59.43;31.00;;;2.50;99.90;;;;;;4113510;28;20689;-62
2022/12/22 11:38:36;;;;;;;66.43;32.20;;;2.60;99.90;;;;;;4112372;28;20284;-61
2022/12/22 11:40:45;;;;;;;67.97;33.90;;;2.70;99.90;;;;;;4114101;28;20307;-59
2022/12/22 11:43:09;;;;;;;60.13;31.93;;;2.90;99.90;;;;;;4112963;28;20026;-60
2022/12/22 11:45:38;;;;;;;56.70;30.90;;;3.00;99.90;;;;;;4113668;28;20305;-61
2022/12/22 11:47:53;;;;;;;60.67;30.67;;;3.00;99.90;;;;;;4113966;28;20343;-63
2022/12/22 11:50:24;;;;;;;62.20;31.27;;;3.00;99.90;;;;;;4112824;28;20781;-62
2022/12/22 11:52:38;;;;;;;58.13;30.77;;;3.00;99.90;;;;;;4106136;28;20285;-61
2022/12/22 11:54:48;;;;;;;55.13;29.03;;;3.00;99.90;;;;;;4113564;28;20273;-60
2022/12/22 11:56:53;;;;;;;;;;;3.00;99.90;;;;;;4130240;28;20338;-59
2022/12/22 11:59:00;;;;;;;62.00;31.73;;;3.00;99.90;;;;;;4127790;28;19952;-61
2022/12/22 12:01:04;;;;;;;61.93;31.50;;;2.90;99.90;;;;;;4117810;28;20760;-61
2022/12/22 12:03:47;;;;;;;59.67;30.67;;;2.90;99.90;;;;;;4106223;28;20341;-61
2022/12/22 12:06:18;;;;;;;58.53;30.60;;;2.90;99.90;;;;;;4111089;28;20343;-73
2022/12/22 12:08:42;;;;;;;62.63;31.55;;;2.90;99.90;;;;;;4095865;29;20293;-73
2022/12/22 12:10:51;;;;;;;62.97;32.13;;;2.90;99.90;;;;;;4104936;28;20083;-72
2022/12/22 12:13:27;;;;;;;58.73;32.87;;;3.00;99.90;;;;;;4112678;28;20277;-65
2022/12/22 12:15:54;;;;;;;72.17;36.67;;;3.10;99.90;;;;;;4111939;28;20311;-71
2022/12/22 12:18:01;;;;;;;74.17;38.37;;;3.20;99.90;;;;;;4113666;28;20276;-74
2022/12/22 12:20:20;;;;;;;65.47;33.07;;;3.20;99.90;;;;;;4113398;28;20261;-72
2022/12/22 12:22:43;;;;;;;61.70;32.77;;;3.20;99.90;;;;;;4113099;28;20320;-71
2022/12/22 12:25:01;;;;;;;60.97;32.30;;;3.20;99.90;;;;;;4112387;28;20269;-72
2022/12/22 12:27:14;;;;;;;58.87;32.37;;;3.30;99.90;;;;;;4113343;28;20277;-70
2022/12/22 12:29:24;;;;;;;60.83;31.20;;;3.20;99.90;;;;;;4111740;28;20709;-72
2022/12/22 12:31:35;;;;;;;61.93;32.43;;;3.20;99.90;;;;;;4110765;28;20265;-68
2022/12/22 12:33:51;;;;;;;59.30;31.30;;;3.10;99.90;;;;;;4111536;28;20630;-73
2022/12/22 12:36:11;;;;;;;59.93;31.37;;;3.10;99.90;;;;;;4113424;28;20269;-66
2022/12/22 12:38:32;;;;;;;64.07;32.50;;;3.10;99.90;;;;;;4111733;28;20272;-66
2022/12/22 12:40:59;;;;;;;60.63;31.00;;;3.20;99.90;;;;;;4112918;28;20284;-65
2022/12/22 12:43:02;;;;;;;54.40;30.73;;;3.20;99.90;;;;;;4111531;28;20257;-69
2022/12/22 12:45:23;;;;;;;68.43;31.90;;;3.20;99.90;;;;;;4112898;28;20273;-69
2022/12/22 12:47:32;;;;;;;66.97;31.70;;;3.20;99.90;;;;;;4111794;28;20260;-64
2022/12/22 12:49:33;;;;;;;62.80;32.20;;;3.10;99.90;;;;;;4113272;28;20289;-62
2022/12/22 12:52:10;;;;;;;57.47;30.30;;;3.10;99.90;;;;;;4111207;28;20316;-61
2022/12/22 12:54:28;;;;;;;67.30;32.93;;;3.00;99.90;;;;;;4112850;28;20359;-64
2022/12/22 12:57:13;;;;;;;64.20;32.93;;;3.00;99.90;;;;;;4110043;28;20320;-62
2022/12/22 12:59:40;;;;;;;56.93;30.13;;;3.00;99.90;;;;;;4075107;28;20356;-63
2022/12/22 13:01:41;;;;;;;56.67;30.40;;;3.10;99.90;;;;;;4111294;28;20311;-72
2022/12/22 13:03:43;;;;;;;57.43;30.27;;;3.00;99.90;;;;;;4102976;28;20820;-61
2022/12/22 13:05:50;;;;;;;60.87;31.20;;;3.00;99.90;;;;;;4096327;29;20265;-62
2022/12/22 13:08:10;;;;;;;59.17;31.33;;;3.00;99.90;;;;;;4095696;29;20320;-62
2022/12/22 13:10:23;;;;;;;60.27;32.80;;;3.00;99.90;;;;;;4096354;29;20681;-61
2022/12/22 13:12:54;;;;;;;69.40;33.07;;;3.10;99.90;;;;;;4095500;28;20332;-61
2022/12/22 13:15:00;;;;;;;;;;;3.00;99.90;;;;;;4076728;28;20829;-63
2022/12/22 13:17:52;;;;;;;58.07;29.87;;;3.10;99.90;;;;;;4094585;28;19965;-62
2022/12/22 13:19:53;;;;;;;62.37;31.27;;;3.10;99.90;;;;;;4043515;29;20689;-62
2022/12/22 13:21:56;;;;;;;60.00;31.33;;;3.10;99.90;;;;;;4095809;29;20261;-63
2022/12/22 13:24:21;;;;;;;62.83;30.53;;;3.00;99.90;;;;;;4095627;29;20329;-62
2022/12/22 13:26:34;;;;;;;58.90;29.77;;;3.00;99.90;;;;;;4095095;28;21666;-65
2022/12/22 13:28:38;;;;;;;62.37;31.17;;;3.00;99.90;;;;;;4095732;28;20301;-62
2022/12/22 13:30:39;;;;;;;58.03;30.00;;;3.00;99.90;;;;;;4094686;28;20281;-71
2022/12/22 13:32:41;;;;;;;61.47;33.97;;;3.00;99.90;;;;;;4096231;29;20832;-65
2022/12/22 13:34:59;;;;;;;68.07;32.50;;;2.90;99.90;;;;;;4095264;28;20341;-61
2022/12/22 13:37:17;;;;;;;60.27;31.87;;;3.00;99.90;;;;;;4096957;28;20273;-65
2022/12/22 13:39:18;;;;;;;63.80;33.23;;;3.00;99.90;;;;;;4095196;28;20282;-62
2022/12/22 13:41:21;;;;;;;59.57;31.80;;;3.00;99.90;;;;;;4096504;28;20277;-62
2022/12/22 13:43:23;;;;;;;62.93;32.80;;;2.90;99.90;;;;;;4094871;29;20303;-66
2022/12/22 13:45:41;;;;;;;65.63;34.33;;;2.90;99.90;;;;;;4080519;29;20705;-62
2022/12/22 13:47:43;;;;;;;66.80;33.37;;;2.90;99.90;;;;;;4078833;29;20841;-64
2022/12/22 13:49:44;;;;;;;72.63;34.00;;;2.90;99.90;;;;;;4081646;28;20328;-66
2022/12/22 13:51:46;;;;;;;65.80;34.47;;;2.90;99.90;;;;;;4079440;29;20607;-62
2022/12/22 13:53:51;;;;;;;53.37;29.80;;;2.90;99.90;;;;;;4080856;29;20274;-65
2022/12/22 13:55:52;;;;;;;63.90;33.30;;;2.90;99.90;;;;;;4079762;29;20368;-63
2022/12/22 13:58:04;;;;;;;62.13;31.47;;;2.90;99.90;;;;;;4091986;28;20277;-62
2022/12/22 14:00:15;;;;;;;59.73;30.40;;;2.90;99.90;;;;;;4109116;28;20670;-62
2022/12/22 14:02:18;;;;;;;67.60;32.60;;;2.80;99.90;;;;;;4095468;29;20281;-61
2022/12/22 14:04:20;;;;;;;60.90;30.27;;;2.90;99.90;;;;;;4107533;28;20288;-61
2022/12/22 14:06:47;;;;;;;56.13;30.23;;;2.90;99.90;;;;;;4110989;28;20347;-63
2022/12/22 14:08:48;;;;;;;62.60;30.17;;;2.90;99.90;;;;;;4106327;28;20363;-62
2022/12/22 14:10:51;;;;;;;68.83;32.23;;;2.90;99.90;;;;;;4112318;28;20661;-62
2022/12/22 14:12:53;;;;;;;65.93;33.07;;;3.00;99.90;;;;;;4110043;28;20743;-68
2022/12/22 14:14:55;;;;;;;63.47;33.30;;;3.00;99.90;;;;;;4111686;28;20300;-64
2022/12/22 14:16:59;;;;;;;66.70;34.10;;;3.00;99.90;;;;;;4110922;28;20371;-61
2022/12/22 14:19:01;;;;;;;68.30;33.97;;;3.00;99.90;;;;;;4111163;28;20769;-62
2022/12/22 14:21:03;;;;;;;76.73;36.20;;;3.00;99.90;;;;;;4112451;28;20312;-62